• Join FlightAware (Why Join?)
  • Login
  • US Flag 
06:41PM EDT


 

Airport Tracker/Info


-or-


 

Live Flight TrackerFlight Track Log ✈ GJS3618 ✈ 08-Apr-2013 ✈ KSTL - KORD

Flight Track Log - Related Links

Times and Time Zones

All times are in EDT time to prevent confusion due to time zone crossing. See the GJS3618 flight status page for this flight to view local times or setup timezone preferences in your user account.

Time Position Orientation Groundspeed Altitude Reporting Facility
EDT Latitude Longitude Course Direction KTS MPH feet Rate Location/Type
02:59PM 38.7594 -90.3611 14° North 180 207 1,800  Level FAA TRACON SMA TRACON (SMA)
03:00PM 38.7736 -90.3736 325° Northwest 196 226 2,700 3,180 Climbing FAA TRACON SMA TRACON (SMA)
03:00PM 38.7922 -90.3783 349° North 217 250 4,000 4,140 Climbing FAA TRACON SMA TRACON (SMA)
03:00PM 38.8169 -90.3833 351° North 233 268 5,400 3,600 Climbing FAA TRACON SMA TRACON (SMA)
03:01PM 38.8381 -90.3797 North 249 287 6,400 2,040 Climbing FAA TRACON SMA TRACON (SMA)
03:01PM 38.8583 -90.3633 32° Northeast 272 313 6,800 2,460 Climbing FAA TRACON SMA TRACON (SMA)
03:01PM 38.8850 -90.3400 34° Northeast 300 345 8,000 3,720 Climbing FAA TRACON SMA TRACON (SMA)
03:02PM 38.9064 -90.3225 32° Northeast 301 346 9,300 3,060 Climbing FAA TRACON SMA TRACON (SMA)
03:02PM 38.9269 -90.3022 38° Northeast 302 348 10,100 2,880 Climbing FAA TRACON SMA TRACON (SMA)
03:02PM 38.9539 -90.2775 36° Northeast 309 356 11,200 2,520 Climbing FAA TRACON SMA TRACON (SMA)
03:03PM 38.9508 -90.1275 18° North  Level FlightAware Approximate
03:03PM 38.9767 -90.2564 36° Northeast 323 372 11,800  Level FAA TRACON SMA TRACON (SMA)
03:03PM 39.0008 -90.2350 35° Northeast 339 390 12,400 2,280 Climbing FAA TRACON SMA TRACON (SMA)
03:04PM 39.0368 -90.0933 14° North  Level FlightAware Approximate
03:04PM 39.0575 -90.1844 35° Northeast 361 415 14,100  Level FAA TRACON SMA TRACON (SMA)
03:04PM 39.0836 -90.1606 35° Northeast 372 428 14,700 1,980 Climbing FAA TRACON SMA TRACON (SMA)
03:04PM 39.1178 -90.1300 35° Northeast 386 444 15,400 2,100 Climbing FAA TRACON SMA TRACON (SMA)
03:05PM 39.1240 -90.0642 14° North  Level FlightAware Approximate
03:05PM 39.1456 -90.1050 35° Northeast 396 456 16,100  Level FAA TRACON SMA TRACON (SMA)
03:05PM 39.1739 -90.0800 34° Northeast 401 461 16,800 2,460 Climbing FAA TRACON SMA TRACON (SMA)
03:05PM 39.2097 -90.0481 35° Northeast 405 466 17,700 3,000 Climbing FAA TRACON SMA TRACON (SMA)
03:06PM 39.2386 -90.0225 34° Northeast 408 470 18,800 3,360 Climbing FAA TRACON SMA TRACON (SMA)
03:06PM 39.2672 -89.9981 33° Northeast 404 465 20,000 3,180 Climbing FAA TRACON SMA TRACON (SMA)
03:06PM 39.3022 -89.9678 34° Northeast 395 455 20,900 1,500 Climbing FAA TRACON SMA TRACON (SMA)
03:07PM 39.3314 -89.9422 34° Northeast 405 466 21,000 120 Climbing FAA TRACON SMA TRACON (SMA)
03:07PM 39.3639 -89.9217 26° Northeast 419 482 21,000  Level FAA TRACON SMA TRACON (SMA)
03:07PM 39.4064 -89.8944 26° Northeast 440 506 21,000  Level FAA TRACON SMA TRACON (SMA)
03:08PM 39.4408 -89.8731 26° Northeast 446 513 21,000  Level FAA TRACON SMA TRACON (SMA)
03:08PM 39.4747 -89.8519 26° Northeast 443 510 21,000  Level FAA TRACON SMA TRACON (SMA)
03:08PM 39.5164 -89.8256 26° Northeast 435 501 21,000  Level FAA TRACON SMA TRACON (SMA)
03:09PM 39.5492 -89.8036 27° Northeast 431 496 21,000  Level FAA TRACON SMA TRACON (SMA)
03:09PM 39.5828 -89.7853 23° Northeast 427 491 21,000  Level FAA TRACON SMA TRACON (SMA)
03:09PM 39.6242 -89.7600 25° Northeast 426 490 21,000  Level FAA TRACON SMA TRACON (SMA)
03:10PM 39.6325 -89.7547 26° Northeast 426 490 21,000  Level FAA TRACON SMA TRACON (SMA)
03:10PM 39.7258 -89.7475 North 425 489 21,000  Level Kansas City Center
03:11PM 39.8303 -89.6811 26° Northeast 421 484 21,000  Level Kansas City Center
03:13PM 39.9267 -89.5936 35° Northeast 424 488 21,000  Level Kansas City Center
03:13PM 39.9839 -89.5406 35° Northeast 428 493 21,000  Level Chicago Center
03:14PM 40.0806 -89.4489 36° Northeast 430 495 21,000  Level Chicago Center
03:15PM 40.1792 -89.3539 36° Northeast 440 506 21,000  Level Chicago Center
03:16PM 40.2994 -89.2392 36° Northeast 447 514 21,000  Level Chicago Center
03:17PM 40.4017 -89.1408 36° Northeast 455 524 21,000  Level Chicago Center
03:18PM 40.5033 -89.0419 36° Northeast 457 526 21,000  Level Chicago Center
03:19PM 40.6061 -88.9425 36° Northeast 459 528 21,000  Level Chicago Center
03:20PM 40.7067 -88.8447 36° Northeast 459 528 21,000  Level Chicago Center
03:21PM 40.8339 -88.7367 33° Northeast 457 526 21,000  Level Chicago Center
03:22PM 40.9517 -88.7161 North 430 495 21,000 -660 Level Chicago Center
03:23PM 41.0586 -88.6986 North 391 450 19,700 -1,200 Descending Chicago Center
03:24PM 41.1511 -88.6828 North 341 392 18,600 -1,860 Descending Chicago Center
03:25PM 41.2467 -88.6503 14° North 359 413 15,900 -2,700 Descending Chicago Center
03:27PM 41.3436 -88.6075 18° North 366 421 13,100 -2,400 Descending Chicago Center
03:28PM 41.4608 -88.5536 19° North 366 421 11,000 -1,020 Descending Chicago Center
03:29PM 41.5361 -88.4553 44° Northeast 379 436 11,000  Level Chicago Center
03:30PM 41.6142 -88.3586 43° Northeast 380 437 11,000  Level Chicago Center
03:31PM 41.6914 -88.2656 42° Northeast 373 429 11,000 -360 Level Chicago Center
03:32PM 41.7625 -88.1786 42° Northeast 344 396 10,300 -1,140 Descending Chicago Center
03:33PM 41.8253 -88.1031 42° Northeast 307 353 8,700 -1,320 Descending Chicago Center
03:34PM 41.8772 -88.0386 43° Northeast 267 307 7,600 -1,140 Descending Chicago Center
03:34PM 41.8833 -88.0000 78° East 229 264 7,100 -420 Descending Chicago TRACON
03:35PM 41.8833 -87.9167 90° East 240 276 7,100  Level Chicago TRACON
03:36PM 41.8833 -87.8167 90° East 241 277 7,100  Level Chicago TRACON
03:37PM 41.8833 -87.7333 90° East 236 272 7,100  Level Chicago TRACON
03:38PM 41.8833 -87.6500 90° East 235 270 7,100 -480 Level Chicago TRACON
03:39PM 41.8747 -87.5853 100° East 237 273 6,200 -1,140 Descending Chicago Center
03:40PM 41.8767 -87.5025 88° East 230 265 5,000 -540 Descending Chicago Center
03:41PM 41.8833 -87.4000 85° East 224 258 5,100  Climbing Chicago TRACON
03:42PM 41.8958 -87.3183 78° East 230 265 5,000 -60 Descending Chicago Center
03:43PM 41.9153 -87.2453 70° East 226 260 5,000  Level Chicago Center
03:44PM 41.9644 -87.2431 North 188 216 5,000  Level Chicago Center
03:45PM 41.9675 -87.2969 274° West 156 180 5,000  Level Chicago Center
03:46PM 41.9692 -87.3533 272° West 153 176 5,000  Level Chicago Center
03:47PM 41.9681 -87.4197 269° West 150 173 5,000  Level Chicago Center
03:48PM 41.9667 -87.4667 268° West 154 177 5,100  Climbing Chicago TRACON
03:49PM 41.9667 -87.5333 270° West 155 178 5,100  Level Chicago TRACON
03:50PM 41.9667 -87.5833 270° West 153 176 5,100 -360 Level Chicago TRACON
03:51PM 41.9667 -87.6333 270° West 150 173 4,400 -840 Descending Chicago TRACON
03:52PM 41.9667 -87.7000 270° West 169 194 3,500 -960 Descending Chicago TRACON
03:53PM 41.9667 -87.7667 270° West 163 188 2,500 -900 Descending Chicago TRACON
03:54PM 41.9667 -87.8167 270° West 125 144 1,800 -720 Descending Chicago TRACON